Airfield :
LOGIN :

Register | Disclaimer

   EN    FR    IT 

 










Legend :    VFR   Marginal VFR   IFR   Intensive IFR   Very Intensive IFR
Visi :
Ceiling :
>= 8 km
>= 3000ft
5 to 8 km
1000 to 3000 ft
1500m to 5 km
500 to 1000 ft
800 to 1500m
200 to 500 ft
< 800m
< 200 ft
Symbols :   Thunderstorms  Fog  Heavy snow  Heavy precipitations  Wind > 20 kt
SIGMETs :     Misc.  Thunderstorms  Icing  Turbulence  Mountain Waves  Volcanic Ashes







- Airport Elevation : 157 ft
- IATA code : LIL
- Download approach charts


LFQQ - Lille Lesquin

CURRENT METAR :
  • 171400Z AUTO 14005KT 060V210 CAVOK 26/10 Q1014 NOSIG

EXPIRED METARs :
  • 171330Z AUTO VRB03KT CAVOK 27/10 Q1014 NOSIG
  • 171300Z AUTO 10004KT 020V160 CAVOK 26/09 Q1014 NOSIG
  • 171230Z AUTO 08005KT 010V130 CAVOK 25/10 Q1014 NOSIG
  • 171200Z AUTO VRB03KT CAVOK 25/11 Q1015 NOSIG
  • 171130Z AUTO VRB04KT CAVOK 24/11 Q1015 NOSIG

TAF TAF LFQQ
Valid from the 17 at 12:00 until the 18 at 18:00 UTC


171100Z 1712/1818 12005KT CAVOK
BECMG 1803/1806 26010KT
PROB30
TEMPO 1806/1809 BKN012
FM180900 24012KT 9999 BKN025
TEMPO 1810/1814 4000 -RA OVC012
ATIS : +33 3 20 16 19 54
No reported NOTAMs for that airfield.



MET'MAP, your aeronautical weather chart ! - Copyright ORBIFLY December 2007 - Disclaimer

ORBIFLY MET'MAP TEAM :

Programming & Development : Alexandra Zaïnal
Concept & Development : Baudouin d'Aumeries
Co-Development & Prog : Marc-Olivier Méhu
Technical & hardware support : Manuel Goepfert

Contact : metmap@orbifly.com




SOURCES & CREDITS :

   NOAA